createdAt,value
2022-09-14T00:01:31.563Z,10.43
2022-09-14T00:04:01.207Z,9.60
2022-09-14T00:06:29.238Z,10.70
2022-09-14T00:08:58.254Z,9.67
2022-09-14T00:11:27.343Z,10.53
2022-09-14T00:13:56.163Z,10.17
2022-09-14T00:16:27.920Z,9.70
2022-09-14T00:18:57.792Z,9.87
2022-09-14T00:21:25.746Z,9.73
2022-09-14T00:23:52.762Z,9.70
2022-09-14T00:26:22.524Z,9.53
2022-09-14T00:28:52.324Z,9.20
2022-09-14T00:31:23.401Z,9.17
2022-09-14T00:33:51.796Z,9.27
2022-09-14T00:36:22.352Z,9.43
2022-09-14T00:38:50.014Z,10.30
2022-09-14T00:41:22.226Z,10.07
2022-09-14T00:44:00.004Z,9.63
2022-09-14T00:46:30.113Z,10.03
2022-09-14T00:49:00.886Z,9.77
2022-09-14T00:51:31.565Z,9.87
2022-09-14T00:53:58.492Z,9.40
2022-09-14T00:56:26.667Z,9.57
2022-09-14T00:58:54.993Z,9.00
2022-09-14T01:01:22.242Z,7.47
2022-09-14T01:03:49.079Z,8.30
2022-09-14T01:06:43.323Z,9.20
2022-09-14T01:09:14.889Z,9.00
2022-09-14T01:12:24.907Z,7.60
2022-09-14T01:15:18.218Z,8.57
2022-09-14T01:18:01.743Z,8.00
2022-09-14T01:20:59.824Z,10.50
2022-09-14T01:23:26.843Z,7.90
2022-09-14T01:26:08.864Z,8.50
2022-09-14T01:28:46.679Z,8.67
2022-09-14T01:31:26.302Z,7.30
2022-09-14T01:34:02.336Z,7.90
2022-09-14T01:36:31.045Z,7.83
2022-09-14T01:38:59.551Z,8.00
2022-09-14T01:41:30.300Z,8.13
2022-09-14T01:44:12.209Z,8.27
2022-09-14T01:46:53.278Z,8.60
2022-09-14T01:49:52.972Z,8.60
2022-09-14T01:52:27.438Z,9.43
2022-09-14T01:55:03.556Z,9.03
2022-09-14T01:57:36.986Z,7.20
2022-09-14T02:00:10.782Z,8.30
2022-09-14T02:02:44.935Z,8.57
2022-09-14T02:05:29.822Z,9.03
2022-09-14T02:07:57.165Z,9.03
2022-09-14T02:10:26.912Z,8.40
2022-09-14T02:12:55.401Z,8.63
2022-09-14T02:15:23.213Z,8.87
2022-09-14T02:17:50.220Z,9.33
2022-09-14T02:20:50.234Z,9.67
2022-09-14T02:23:18.477Z,10.07
2022-09-14T02:25:46.519Z,8.60
2022-09-14T02:28:13.655Z,8.60
2022-09-14T02:30:57.836Z,10.03
2022-09-14T02:33:53.637Z,9.00
2022-09-14T02:36:31.014Z,8.83
2022-09-14T02:39:08.693Z,11.00
2022-09-14T02:41:54.250Z,8.80
2022-09-14T02:44:39.968Z,10.37
2022-09-14T02:47:22.303Z,10.27
2022-09-14T02:50:10.493Z,9.67
2022-09-14T02:52:46.989Z,10.67
2022-09-14T02:55:19.768Z,12.03
2022-09-14T02:58:11.156Z,8.97
2022-09-14T03:00:44.490Z,9.53
2022-09-14T03:03:13.279Z,9.47
2022-09-14T03:05:41.068Z,8.93
2022-09-14T03:08:10.291Z,10.43
2022-09-14T03:10:38.360Z,10.10
2022-09-14T03:13:05.316Z,8.90
2022-09-14T03:15:32.682Z,8.60
2022-09-14T03:17:59.365Z,10.30
2022-09-14T03:20:29.938Z,9.07
2022-09-14T03:22:59.140Z,10.17
2022-09-14T03:25:26.376Z,9.67
2022-09-14T03:27:56.104Z,10.20
2022-09-14T03:30:27.172Z,9.80
2022-09-14T03:32:53.905Z,9.60
2022-09-14T03:35:21.204Z,11.67
2022-09-14T03:37:48.171Z,11.40
2022-09-14T03:40:21.598Z,11.93
2022-09-14T03:42:52.192Z,12.10
2022-09-14T03:45:20.654Z,11.57
2022-09-14T03:47:47.816Z,11.87
2022-09-14T03:50:15.734Z,11.90
2022-09-14T03:52:42.725Z,11.30
2022-09-14T03:55:11.591Z,11.37
2022-09-14T03:57:39.055Z,11.90
2022-09-14T04:00:08.498Z,11.10
2022-09-14T04:02:35.269Z,12.50
2022-09-14T04:05:02.408Z,11.60
2022-09-14T04:07:29.368Z,11.70
2022-09-14T04:09:56.672Z,14.90
2022-09-14T04:12:23.503Z,14.07
2022-09-14T04:14:50.665Z,14.33
2022-09-14T04:17:17.664Z,13.00
2022-09-14T04:19:45.030Z,15.60
2022-09-14T04:22:11.969Z,14.40
2022-09-14T04:24:41.315Z,13.77
2022-09-14T04:27:08.052Z,13.10
2022-09-14T04:29:35.231Z,13.03
2022-09-14T04:32:02.212Z,14.90
2022-09-14T04:34:28.996Z,13.90
2022-09-14T04:36:55.811Z,12.33
2022-09-14T04:39:22.964Z,14.10
2022-09-14T04:41:49.972Z,13.80
2022-09-14T04:44:16.811Z,13.60
2022-09-14T04:46:47.343Z,15.10
2022-09-14T04:49:15.756Z,13.80
2022-09-14T04:51:43.012Z,13.30
2022-09-14T04:54:13.156Z,15.23
2022-09-14T04:56:40.710Z,12.70
2022-09-14T04:59:07.672Z,13.37
2022-09-14T05:01:46.084Z,14.00
2022-09-14T05:04:13.017Z,16.00
2022-09-14T05:06:42.497Z,13.67
2022-09-14T05:09:15.226Z,13.07
2022-09-14T05:11:42.695Z,14.37
2022-09-14T05:14:12.721Z,14.13
2022-09-14T05:16:41.443Z,12.30
2022-09-14T05:19:11.674Z,11.97
2022-09-14T05:21:40.895Z,12.40
2022-09-14T05:24:12.914Z,11.93
2022-09-14T05:26:40.939Z,11.30
2022-09-14T05:29:07.741Z,12.60
2022-09-14T05:31:35.025Z,10.40
2022-09-14T05:34:01.879Z,10.90
2022-09-14T05:36:28.784Z,12.37
2022-09-14T05:38:58.810Z,13.10
2022-09-14T05:41:26.052Z,10.90
2022-09-14T05:43:52.807Z,10.67
2022-09-14T05:46:23.374Z,11.73
2022-09-14T05:48:51.899Z,10.07
2022-09-14T05:51:24.187Z,11.17
2022-09-14T05:53:52.786Z,11.73
2022-09-14T05:56:21.125Z,11.10
2022-09-14T05:58:48.484Z,12.20
2022-09-14T06:01:24.857Z,11.67
2022-09-14T06:03:54.617Z,11.60
2022-09-14T06:06:22.319Z,11.23
2022-09-14T06:08:52.756Z,10.03
2022-09-14T06:11:23.598Z,12.43
2022-09-14T06:13:51.245Z,10.50
2022-09-14T06:16:20.470Z,11.00
2022-09-14T06:18:48.747Z,11.10
2022-09-14T06:21:19.735Z,10.53
2022-09-14T06:23:48.068Z,10.00
2022-09-14T06:26:15.900Z,9.63
2022-09-14T06:28:43.242Z,11.57
2022-09-14T06:31:14.338Z,10.40
2022-09-14T06:33:45.434Z,12.93
2022-09-14T06:36:15.483Z,9.80
2022-09-14T06:38:43.014Z,11.23
2022-09-14T06:41:13.611Z,13.50
2022-09-14T06:43:42.393Z,14.07
2022-09-14T06:46:19.905Z,16.03
2022-09-14T06:48:52.817Z,14.20
2022-09-14T06:51:28.449Z,15.90
2022-09-14T06:53:59.455Z,14.50
2022-09-14T06:56:32.266Z,14.93
2022-09-14T06:59:01.482Z,12.90
2022-09-14T07:01:30.335Z,10.60
2022-09-14T07:03:58.375Z,9.63
2022-09-14T07:06:27.371Z,9.40
2022-09-14T07:08:54.597Z,9.50
2022-09-14T07:11:24.108Z,10.03
2022-09-14T07:13:51.843Z,9.80
2022-09-14T07:16:19.225Z,9.00
2022-09-14T07:18:48.081Z,9.37
2022-09-14T07:21:18.584Z,8.70
2022-09-14T07:23:47.100Z,8.17
2022-09-14T07:26:23.390Z,8.40
2022-09-14T07:28:59.564Z,10.37
2022-09-14T07:31:29.541Z,8.63
2022-09-14T07:33:58.498Z,10.00
2022-09-14T07:36:28.009Z,9.83
2022-09-14T07:38:56.345Z,9.27
2022-09-14T07:41:25.258Z,9.07
2022-09-14T07:43:53.913Z,9.87
2022-09-14T07:46:22.162Z,8.77
2022-09-14T07:48:54.228Z,8.70
2022-09-14T07:51:21.590Z,8.53
2022-09-14T07:53:48.707Z,7.90
2022-09-14T07:56:17.472Z,8.07
2022-09-14T07:58:44.905Z,7.70
2022-09-14T08:01:17.919Z,8.67
2022-09-14T08:03:46.309Z,9.00
2022-09-14T08:06:19.526Z,10.33
2022-09-14T08:08:48.134Z,9.27
2022-09-14T08:11:20.627Z,10.57
2022-09-14T08:13:50.906Z,8.20
2022-09-14T08:16:19.722Z,7.80
2022-09-14T08:18:47.357Z,7.50
2022-09-14T08:21:17.358Z,8.10
2022-09-14T08:23:45.332Z,9.77
2022-09-14T08:26:18.120Z,8.00
2022-09-14T08:28:46.238Z,8.60
2022-09-14T08:31:20.925Z,8.03
2022-09-14T08:33:54.257Z,8.03
2022-09-14T08:36:22.556Z,7.60
2022-09-14T08:38:49.618Z,9.07
2022-09-14T08:41:26.695Z,7.60
2022-09-14T08:43:53.811Z,7.87
2022-09-14T08:46:38.732Z,7.67
2022-09-14T08:49:15.415Z,7.40
2022-09-14T08:51:43.503Z,9.00
2022-09-14T08:54:10.752Z,7.03
2022-09-14T08:56:42.229Z,9.07
2022-09-14T08:59:35.976Z,7.73
2022-09-14T09:02:20.669Z,9.57
2022-09-14T09:05:28.126Z,8.47
2022-09-14T09:08:13.474Z,7.80
2022-09-14T09:10:41.410Z,7.60
2022-09-14T09:13:14.555Z,7.13
2022-09-14T09:15:54.629Z,7.67
2022-09-14T09:18:40.751Z,6.17
2022-09-14T09:21:15.759Z,7.03
2022-09-14T09:23:43.108Z,7.60
2022-09-14T09:26:15.614Z,5.93
2022-09-14T09:28:52.284Z,5.70
2022-09-14T09:31:22.883Z,7.87
2022-09-14T09:33:50.955Z,7.63
2022-09-14T09:36:18.981Z,6.63
2022-09-14T09:38:46.203Z,6.60
2022-09-14T09:41:19.252Z,6.37
2022-09-14T09:44:05.683Z,6.40
2022-09-14T09:46:35.103Z,5.70
2022-09-14T09:49:14.669Z,6.33
2022-09-14T09:51:41.573Z,5.37
2022-09-14T09:54:23.899Z,6.23
2022-09-14T09:56:58.076Z,6.07
2022-09-14T09:59:41.436Z,5.17
2022-09-14T10:02:33.126Z,6.07
2022-09-14T10:05:10.498Z,4.90
2022-09-14T10:07:49.696Z,7.03
2022-09-14T10:10:20.229Z,5.67
2022-09-14T10:12:50.144Z,6.27
2022-09-14T10:15:26.015Z,5.07
2022-09-14T10:18:00.540Z,5.10
2022-09-14T10:20:27.715Z,4.80
2022-09-14T10:22:54.594Z,7.30
2022-09-14T10:25:26.027Z,10.10
2022-09-14T10:27:55.510Z,6.50
2022-09-14T10:30:28.672Z,6.27
2022-09-14T10:33:05.801Z,6.30
2022-09-14T10:35:46.375Z,5.63
2022-09-14T10:38:28.091Z,6.33
2022-09-14T10:41:16.458Z,6.30
2022-09-14T10:44:00.993Z,5.07
2022-09-14T10:46:46.928Z,5.77
2022-09-14T10:49:56.377Z,5.40
2022-09-14T10:52:36.827Z,5.63
2022-09-14T10:55:44.706Z,5.33
2022-09-14T10:58:55.647Z,5.83
2022-09-14T11:01:32.166Z,5.60
2022-09-14T11:04:18.216Z,5.87
2022-09-14T11:07:05.461Z,5.37
2022-09-14T11:09:44.692Z,6.50
2022-09-14T11:12:18.858Z,6.57
2022-09-14T11:15:01.330Z,7.00
2022-09-14T11:17:54.328Z,5.13
2022-09-14T11:20:42.458Z,5.97
2022-09-14T11:23:20.922Z,5.30
2022-09-14T11:26:11.260Z,5.67
2022-09-14T11:28:40.706Z,6.27
2022-09-14T11:31:14.354Z,6.53
2022-09-14T11:33:48.825Z,6.90
2022-09-14T11:36:22.410Z,5.40
2022-09-14T11:39:11.839Z,5.93
2022-09-14T11:42:00.309Z,6.00
2022-09-14T11:44:33.475Z,7.60
2022-09-14T11:47:08.509Z,6.23
2022-09-14T11:49:55.358Z,6.83
2022-09-14T11:52:25.357Z,6.87
2022-09-14T11:54:52.704Z,6.57
2022-09-14T11:57:29.622Z,6.60
2022-09-14T12:00:01.948Z,6.00
2022-09-14T12:02:31.365Z,7.70
2022-09-14T12:05:10.654Z,6.63
2022-09-14T12:07:43.610Z,6.20
2022-09-14T12:10:18.916Z,6.83
2022-09-14T12:13:04.229Z,6.80
2022-09-14T12:15:31.027Z,6.43
2022-09-14T12:18:07.058Z,6.03
2022-09-14T12:20:45.424Z,7.17
2022-09-14T12:23:27.885Z,7.00
2022-09-14T12:26:04.269Z,7.97
2022-09-14T12:28:37.766Z,6.80
2022-09-14T12:31:04.809Z,7.27
2022-09-14T12:33:31.834Z,7.03
2022-09-14T12:36:14.118Z,7.83
2022-09-14T12:39:23.342Z,8.00
2022-09-14T12:41:52.156Z,8.00
2022-09-14T12:44:42.599Z,7.90
2022-09-14T12:47:24.451Z,8.20
2022-09-14T12:49:58.107Z,7.30
2022-09-14T12:52:45.035Z,9.80
2022-09-14T12:55:45.086Z,9.53
2022-09-14T12:58:20.563Z,8.37
2022-09-14T13:01:30.011Z,8.80
2022-09-14T13:03:58.276Z,8.20
2022-09-14T13:06:34.107Z,8.87
2022-09-14T13:09:03.706Z,9.10
2022-09-14T13:11:37.139Z,8.70
2022-09-14T13:14:04.388Z,7.50
2022-09-14T13:16:40.074Z,9.50
2022-09-14T13:19:20.762Z,9.07
2022-09-14T13:21:49.944Z,9.20
2022-09-14T13:24:26.061Z,8.90
2022-09-14T13:26:56.527Z,9.00
2022-09-14T13:29:24.740Z,8.40
2022-09-14T13:31:51.762Z,7.50
2022-09-14T13:34:41.222Z,8.30
2022-09-14T13:37:08.028Z,7.20
2022-09-14T13:39:40.227Z,7.27
2022-09-14T13:42:08.351Z,8.30
2022-09-14T13:44:42.109Z,9.40
2022-09-14T13:47:13.494Z,8.00
2022-09-14T13:49:41.712Z,9.00
2022-09-14T13:52:19.147Z,8.43
2022-09-14T13:54:46.720Z,8.60
2022-09-14T13:57:19.370Z,8.37
2022-09-14T14:00:14.169Z,9.57
2022-09-14T14:02:46.544Z,8.73
2022-09-14T14:05:23.665Z,9.37
2022-09-14T14:07:51.417Z,9.30
2022-09-14T14:10:24.896Z,8.60
2022-09-14T14:12:51.882Z,9.50
2022-09-14T14:15:19.007Z,8.90
2022-09-14T14:17:45.720Z,8.70
2022-09-14T14:20:24.737Z,8.90
2022-09-14T14:23:20.172Z,9.17
2022-09-14T14:25:52.300Z,9.63
2022-09-14T14:28:30.640Z,8.70
2022-09-14T14:31:00.958Z,7.77
2022-09-14T14:33:29.867Z,8.60
2022-09-14T14:35:57.047Z,7.63
2022-09-14T14:38:25.099Z,11.73
2022-09-14T14:40:55.950Z,8.93
2022-09-14T14:43:25.563Z,8.67
2022-09-14T14:45:58.049Z,8.23
2022-09-14T14:48:25.234Z,9.17
2022-09-14T14:50:53.016Z,8.03
2022-09-14T14:53:20.043Z,8.23
2022-09-14T14:55:48.272Z,8.20
2022-09-14T14:58:19.701Z,9.50
2022-09-14T15:00:47.714Z,8.73
2022-09-14T15:03:15.570Z,9.53
2022-09-14T15:05:48.162Z,9.63
2022-09-14T15:08:17.154Z,8.90
2022-09-14T15:10:44.307Z,8.50
2022-09-14T15:13:12.283Z,9.23
2022-09-14T15:15:44.538Z,9.10
2022-09-14T15:18:11.533Z,8.57
2022-09-14T15:20:38.532Z,9.30
2022-09-14T15:23:06.170Z,8.97
2022-09-14T15:25:33.461Z,8.57
2022-09-14T15:28:00.379Z,7.80
2022-09-14T15:30:27.153Z,8.97
2022-09-14T15:32:54.465Z,9.17
2022-09-14T15:35:21.157Z,7.07
2022-09-14T15:37:48.560Z,8.23
2022-09-14T15:40:15.636Z,7.40
2022-09-14T15:42:42.757Z,8.33
2022-09-14T15:45:10.030Z,7.10
2022-09-14T15:47:36.917Z,7.67
2022-09-14T15:50:05.760Z,7.87
2022-09-14T15:52:36.163Z,7.43
2022-09-14T15:55:04.234Z,6.80
2022-09-14T15:57:31.061Z,8.53
2022-09-14T15:59:57.833Z,7.40
2022-09-14T16:02:25.113Z,7.73
2022-09-14T16:04:51.952Z,7.70
2022-09-14T16:07:19.052Z,6.70
2022-09-14T16:09:45.928Z,8.73
2022-09-14T16:12:13.453Z,7.30
2022-09-14T16:14:40.164Z,7.53
2022-09-14T16:17:08.648Z,6.73
2022-09-14T16:19:35.888Z,6.87
2022-09-14T16:22:03.357Z,9.30
2022-09-14T16:24:31.177Z,10.27
2022-09-14T16:26:59.688Z,8.70
2022-09-14T16:29:26.623Z,8.30
2022-09-14T16:31:53.843Z,8.23
2022-09-14T16:34:25.296Z,8.60
2022-09-14T16:36:52.244Z,8.13
2022-09-14T16:39:23.091Z,8.63
2022-09-14T16:41:50.447Z,8.60
2022-09-14T16:44:20.113Z,9.47
2022-09-14T16:46:49.267Z,9.03
2022-09-14T16:49:17.075Z,8.47
2022-09-14T16:51:44.468Z,8.93
2022-09-14T16:54:16.329Z,8.77
2022-09-14T16:56:44.556Z,8.80
2022-09-14T16:59:12.238Z,7.60
2022-09-14T17:01:41.964Z,9.57
2022-09-14T17:04:15.184Z,7.57
2022-09-14T17:06:44.719Z,10.20
2022-09-14T17:09:22.255Z,7.63
2022-09-14T17:11:49.218Z,7.70
2022-09-14T17:14:18.116Z,9.03
2022-09-14T17:16:45.247Z,8.70
2022-09-14T17:19:12.598Z,7.80
2022-09-14T17:21:43.098Z,10.67
2022-09-14T17:24:09.955Z,8.63
2022-09-14T17:26:37.781Z,8.07
2022-09-14T17:29:05.680Z,7.23
2022-09-14T17:31:36.720Z,8.20
2022-09-14T17:34:05.284Z,8.80
2022-09-14T17:36:32.749Z,8.60
2022-09-14T17:39:02.726Z,8.43
2022-09-14T17:41:31.708Z,8.10
2022-09-14T17:44:04.258Z,8.33
2022-09-14T17:46:32.220Z,10.00
2022-09-14T17:49:00.625Z,8.60
2022-09-14T17:51:29.569Z,8.47
2022-09-14T17:53:57.950Z,10.03
2022-09-14T17:56:27.072Z,9.40
2022-09-14T17:59:12.812Z,11.27
2022-09-14T18:01:40.584Z,10.90
2022-09-14T18:04:10.710Z,10.43
2022-09-14T18:06:43.619Z,11.27
2022-09-14T18:09:16.528Z,11.37
2022-09-14T18:11:44.649Z,13.20
2022-09-14T18:14:14.055Z,13.90
2022-09-14T18:16:42.160Z,14.13
2022-09-14T18:19:09.410Z,10.80
2022-09-14T18:21:36.522Z,11.27
2022-09-14T18:24:03.858Z,10.17
2022-09-14T18:26:31.123Z,11.53
2022-09-14T18:28:58.798Z,9.80
2022-09-14T18:31:27.053Z,10.43
2022-09-14T18:33:57.901Z,9.77
2022-09-14T18:36:28.832Z,12.43
2022-09-14T18:38:56.490Z,10.90
2022-09-14T18:41:23.888Z,11.07
2022-09-14T18:43:52.658Z,8.67
2022-09-14T18:46:23.277Z,10.40
2022-09-14T18:48:54.602Z,9.07
2022-09-14T18:51:23.449Z,10.37
2022-09-14T18:53:59.700Z,10.23
2022-09-14T18:56:28.057Z,10.47
2022-09-14T18:58:56.253Z,10.57
2022-09-14T19:01:23.177Z,11.03
2022-09-14T19:03:50.201Z,9.80
2022-09-14T19:06:19.067Z,11.97
2022-09-14T19:08:46.660Z,10.60
2022-09-14T19:11:18.906Z,11.43
2022-09-14T19:13:46.993Z,11.53
2022-09-14T19:16:20.288Z,13.17
2022-09-14T19:18:49.818Z,11.23
2022-09-14T19:21:23.844Z,10.60
2022-09-14T19:24:10.485Z,9.87
2022-09-14T19:26:44.750Z,10.27
2022-09-14T19:29:14.343Z,10.20
2022-09-14T19:31:41.201Z,10.47
2022-09-14T19:34:08.109Z,12.07
2022-09-14T19:36:35.871Z,10.70
2022-09-14T19:39:04.383Z,10.10
2022-09-14T19:41:33.947Z,10.00
2022-09-14T19:44:09.483Z,10.90
2022-09-14T19:46:36.980Z,9.53
2022-09-14T19:49:04.227Z,11.17
2022-09-14T19:51:31.639Z,11.67
2022-09-14T19:54:00.604Z,12.13
2022-09-14T19:56:29.972Z,10.53
2022-09-14T19:58:59.865Z,10.67
2022-09-14T20:01:30.993Z,11.40
2022-09-14T20:04:03.457Z,10.33
2022-09-14T20:06:33.064Z,11.13
2022-09-14T20:09:02.288Z,11.43
2022-09-14T20:11:31.013Z,12.23
2022-09-14T20:14:00.152Z,12.20
2022-09-14T20:16:31.777Z,13.00
2022-09-14T20:19:02.464Z,12.50
2022-09-14T20:21:29.230Z,11.30
2022-09-14T20:24:17.622Z,13.37
2022-09-14T20:26:46.514Z,12.23
2022-09-14T20:29:14.288Z,13.83
2022-09-14T20:31:40.966Z,12.10
2022-09-14T20:34:08.093Z,11.90
2022-09-14T20:36:34.885Z,12.67
2022-09-14T20:39:02.021Z,13.17
2022-09-14T20:41:33.882Z,13.10
2022-09-14T20:44:02.369Z,13.87
2022-09-14T20:46:34.960Z,12.03
2022-09-14T20:49:03.150Z,12.70
2022-09-14T20:51:29.885Z,12.47
2022-09-14T20:53:56.865Z,14.00
2022-09-14T20:56:25.728Z,14.20
2022-09-14T20:58:57.254Z,11.70
2022-09-14T21:01:27.267Z,12.17
2022-09-14T21:03:55.029Z,14.77
2022-09-14T21:06:24.070Z,12.60
2022-09-14T21:08:51.693Z,12.37
2022-09-14T21:11:26.516Z,14.20
2022-09-14T21:13:55.089Z,13.80
2022-09-14T21:16:25.682Z,12.67
2022-09-14T21:18:59.050Z,14.37
2022-09-14T21:21:26.956Z,13.47
2022-09-14T21:23:56.320Z,11.27
2022-09-14T21:26:25.545Z,12.57
2022-09-14T21:28:57.831Z,13.00
2022-09-14T21:31:25.987Z,14.50
2022-09-14T21:33:55.149Z,15.00
2022-09-14T21:36:25.869Z,14.50
2022-09-14T21:38:56.119Z,14.40
2022-09-14T21:41:28.240Z,15.90
2022-09-14T21:43:56.664Z,13.80
2022-09-14T21:46:24.658Z,13.83
2022-09-14T21:48:52.168Z,14.63
2022-09-14T21:51:19.396Z,13.83
2022-09-14T21:54:00.191Z,14.87
2022-09-14T21:56:29.520Z,15.47
2022-09-14T21:59:03.614Z,14.00
2022-09-14T22:01:31.826Z,13.77
2022-09-14T22:03:59.344Z,13.83
2022-09-14T22:06:28.395Z,14.20
2022-09-14T22:08:56.307Z,15.00
2022-09-14T22:11:26.917Z,12.87
2022-09-14T22:13:55.356Z,13.83
2022-09-14T22:16:23.608Z,14.10
2022-09-14T22:18:53.849Z,14.50
2022-09-14T22:21:21.611Z,13.60
2022-09-14T22:23:54.073Z,15.27
2022-09-14T22:26:21.542Z,14.77
2022-09-14T22:28:49.991Z,16.37
2022-09-14T22:31:18.491Z,16.10
2022-09-14T22:33:45.836Z,17.10
2022-09-14T22:36:12.926Z,15.37
2022-09-14T22:38:42.769Z,16.00
2022-09-14T22:41:12.288Z,16.00
2022-09-14T22:43:40.535Z,14.07
2022-09-14T22:46:08.412Z,15.90
2022-09-14T22:48:36.667Z,13.87
2022-09-14T22:51:05.380Z,13.73
2022-09-14T22:53:33.009Z,17.03
2022-09-14T22:56:06.286Z,13.53
2022-09-14T22:58:33.333Z,15.80
2022-09-14T23:01:09.407Z,14.63
2022-09-14T23:03:36.508Z,14.50
2022-09-14T23:06:04.253Z,13.80
2022-09-14T23:08:31.811Z,14.40
2022-09-14T23:11:06.908Z,14.67
2022-09-14T23:13:38.891Z,14.60
2022-09-14T23:16:19.358Z,14.53
2022-09-14T23:18:51.070Z,15.43
2022-09-14T23:21:18.190Z,15.67
2022-09-14T23:23:45.596Z,16.43
2022-09-14T23:26:12.583Z,18.80
2022-09-14T23:28:40.032Z,18.20
2022-09-14T23:31:07.115Z,18.93
2022-09-14T23:33:34.525Z,18.67
2022-09-14T23:36:01.268Z,19.10
2022-09-14T23:38:28.571Z,20.03
2022-09-14T23:40:55.284Z,19.90
2022-09-14T23:43:22.524Z,19.13
2022-09-14T23:48:17.176Z,22.03
2022-09-14T23:53:26.740Z,24.40
2022-09-14T23:55:54.436Z,20.77
